Time;durP1;ratioP1;P1;durP2;ratioP2;P2;SDS_P1;SDS_P2;PMS_P1;PMS_P2;Temp;Humidity;BMP_temperature;BMP_pressure;BME280_temperature;BME280_humidity;BME280_pressure;Samples;Min_cycle;Max_cycle;Signal;HPM_P1;HPM_P2
2023/08/13 00:03:06;;;;;;;2.25;1.65;;;;;;;19.00;55.05;100646.59;20808009;28;20221;-82
2023/08/13 00:13:10;;;;;;;4.18;2.15;;;;;;;19.05;54.54;100631.22;20836700;28;20218;-81
2023/08/13 00:23:13;;;;;;;6.78;2.22;;;;;;;19.31;53.33;100637.84;20865106;28;20280;-87
2023/08/13 00:33:16;;;;;;;7.68;2.50;;;;;;;19.12;53.89;100637.88;20879970;28;20245;-84
2023/08/13 00:43:20;;;;;;;4.53;2.13;;;;;;;19.03;53.85;100647.88;20893268;28;20655;-87
2023/08/13 00:53:23;;;;;;;8.20;2.95;;;;;;;18.66;54.87;100664.69;20903031;28;20278;-84
2023/08/13 01:03:26;;;;;;;9.32;2.30;;;;;;;18.92;54.84;100657.06;20881601;28;20224;-88
2023/08/13 01:13:33;;;;;;;5.18;1.95;;;;;;;18.88;55.32;100669.59;20893793;28;20286;-85
2023/08/13 01:23:35;;;;;;;6.40;2.25;;;;;;;18.66;56.22;100671.22;20861853;28;20262;-85
2023/08/13 01:33:40;;;;;;;6.07;2.30;;;;;;;18.74;55.86;100681.53;20876407;28;20223;-85
2023/08/13 01:43:43;;;;;;;5.20;1.90;;;;;;;19.03;53.75;100691.50;20918783;28;20217;-88
2023/08/13 01:53:45;;;;;;;5.53;2.00;;;;;;;19.09;54.48;100687.16;20940098;28;20321;-88
2023/08/13 02:03:48;;;;;;;11.05;2.20;;;;;;;18.83;54.08;100675.63;20912193;28;20287;-87
2023/08/13 02:13:50;;;;;;;10.88;2.58;;;;;;;19.06;52.75;100679.34;20898455;28;20266;-87
2023/08/13 02:23:53;;;;;;;7.25;1.80;;;;;;;18.53;53.81;100676.22;20902519;28;20291;-87
2023/08/13 02:33:56;;;;;;;6.55;1.73;;;;;;;18.95;52.63;100682.00;20900398;28;20234;-87
2023/08/13 02:43:58;;;;;;;10.10;2.97;;;;;;;18.76;52.15;100679.16;20904414;28;20195;-80
2023/08/13 02:54:01;;;;;;;6.28;2.35;;;;;;;19.00;51.42;100675.13;20925580;28;20214;-88
2023/08/13 03:04:03;;;;;;;7.35;1.90;;;;;;;18.74;51.89;100672.16;20878371;28;20227;-84
2023/08/13 03:14:06;;;;;;;6.05;1.85;;;;;;;18.61;52.51;100675.19;20879037;28;20692;-80
2023/08/13 03:24:09;;;;;;;7.20;2.30;;;;;;;18.50;53.09;100678.97;20865185;28;20196;-87
2023/08/13 03:34:11;;;;;;;4.82;2.17;;;;;;;18.34;54.71;100667.63;20893909;28;20628;-92
2023/08/13 03:44:14;;;;;;;5.38;1.92;;;;;;;18.09;56.18;100666.25;20903857;28;20258;-87
2023/08/13 03:54:17;;;;;;;9.98;2.58;;;;;;;17.50;58.37;100672.97;20898172;28;20549;-86
2023/08/13 04:04:22;;;;;;;4.82;2.70;;;;;;;17.32;59.75;100680.22;20893728;28;20238;-90
2023/08/13 04:14:25;;;;;;;7.40;2.15;;;;;;;17.34;60.07;100684.34;20906908;28;20219;-83
2023/08/13 04:24:29;;;;;;;7.55;2.63;;;;;;;17.26;60.56;100699.59;20927712;28;20257;-86
2023/08/13 04:34:31;;;;;;;6.13;2.13;;;;;;;17.30;58.88;100708.19;20912893;28;20245;-85
2023/08/13 04:44:34;;;;;;;6.35;2.22;;;;;;;17.44;56.65;100708.56;20869556;28;20211;-84
2023/08/13 04:54:38;;;;;;;5.65;1.85;;;;;;;17.59;55.68;100693.50;20876792;28;20214;-84
2023/08/13 05:04:41;;;;;;;4.65;1.38;;;;;;;17.35;57.06;100691.69;20864635;28;20628;-82
2023/08/13 05:14:45;;;;;;;3.92;1.40;;;;;;;17.74;54.97;100698.38;20857799;28;20219;-81
2023/08/13 05:24:49;;;;;;;3.53;1.95;;;;;;;17.65;56.98;100699.75;20890095;28;20219;-81
2023/08/13 05:34:52;;;;;;;6.90;1.67;;;;;;;18.48;53.63;100687.91;20858620;28;20223;-84
2023/08/13 05:44:56;;;;;;;6.78;1.80;;;;;;;18.24;55.57;100693.88;20887222;28;20193;-85
2023/08/13 05:54:59;;;;;;;9.43;2.65;;;;;;;18.29;55.25;100690.75;20904420;28;20223;-85
2023/08/13 06:05:04;;;;;;;7.70;2.00;;;;;;;18.58;55.31;100693.00;20868817;28;20516;-84
2023/08/13 06:15:07;;;;;;;7.00;1.17;;;;;;;18.49;55.83;100695.25;20853188;28;20292;-87
2023/08/13 06:25:10;;;;;;;5.35;1.73;;;;;;;18.59;55.46;100703.19;20855155;28;20188;-84
2023/08/13 06:35:15;;;;;;;7.05;1.40;;;;;;;18.75;54.80;100713.72;20854796;28;20224;-84
2023/08/13 06:45:19;;;;;;;4.70;1.13;;;;;;;18.66;55.84;100711.13;20851286;28;20231;-85
2023/08/13 06:55:23;;;;;;;4.20;1.02;;;;;;;19.25;55.12;100704.94;20860750;28;20277;-83
2023/08/13 07:05:26;;;;;;;2.80;0.85;;;;;;;19.54;52.51;100696.94;20889727;28;20578;-85
2023/08/13 07:15:28;;;;;;;5.25;1.40;;;;;;;19.05;52.84;100705.38;20909611;28;20219;-86
2023/08/13 07:25:31;;;;;;;5.00;0.73;;;;;;;19.78;51.31;100687.94;20872943;28;20269;-84
2023/08/13 07:35:34;;;;;;;7.70;1.17;;;;;;;19.41;52.15;100701.19;20866906;28;20215;-82
2023/08/13 07:45:37;;;;;;;15.82;1.58;;;;;;;19.93;51.54;100695.56;20885585;28;20257;-84
2023/08/13 07:55:40;;;;;;;10.98;1.45;;;;;;;19.91;50.02;100697.97;20869014;28;20200;-87
2023/08/13 08:05:46;;;;;;;6.57;5.97;;;;;;;19.73;50.11;100699.72;20859443;28;20431;-87
2023/08/13 08:15:49;;;;;;;48.70;9.82;;;;;;;20.42;49.47;100697.50;20901640;28;20200;-87
2023/08/13 08:25:51;;;;;;;2.28;0.80;;;;;;;20.82;47.85;100690.28;20902013;28;20201;-84
2023/08/13 08:36:49;;;;;;;49.72;29.08;;;;;;;21.32;46.31;100686.75;20909598;28;20195;-85
2023/08/13 08:46:53;;;;;;;211.50;150.48;;;;;;;21.32;46.48;100681.03;20883673;28;20212;-85
2023/08/13 08:56:58;;;;;;;249.07;172.88;;;;;;;21.48;44.42;100677.09;20864128;28;20193;-82
2023/08/13 09:07:03;;;;;;;73.43;58.08;;;;;;;21.46;44.84;100671.75;20861178;28;20219;-84
2023/08/13 09:17:10;;;;;;;40.25;27.50;;;;;;;21.71;44.72;100651.91;20873874;28;20257;-88
2023/08/13 09:27:14;;;;;;;36.30;27.08;;;;;;;21.54;44.43;100664.06;20885550;28;20625;-84
2023/08/13 09:37:17;;;;;;;3.50;0.50;;;;;;;21.31;43.58;100655.66;20898427;28;20199;-88
2023/08/13 09:47:25;;;;;;;2.72;0.57;;;;;;;21.41;44.25;100635.75;20887968;28;20208;-86
2023/08/13 09:57:31;;;;;;;4.80;0.90;;;;;;;21.40;46.30;100642.69;20848797;28;20192;-87
2023/08/13 10:07:36;;;;;;;8.63;3.05;;;;;;;21.98;43.67;100627.56;20853395;28;20247;-87
2023/08/13 10:17:39;;;;;;;4.40;1.35;;;;;;;22.07;41.35;100625.19;20864454;28;20539;-87
2023/08/13 10:27:43;;;;;;;8.80;1.63;;;;;;;21.31;44.47;100627.88;20882719;28;20215;-92
2023/08/13 10:37:53;;;;;;;2.72;0.85;;;;;;;21.71;43.34;100618.38;20905694;28;20217;-88
2023/08/13 10:48:01;;;;;;;5.85;0.80;;;;;;;22.26;43.95;100603.16;20878212;28;20273;-88
2023/08/13 10:58:04;;;;;;;5.45;0.88;;;;;;;22.86;41.72;100592.72;20886809;28;20192;-88
2023/08/13 11:08:21;;;;;;;4.22;0.85;;;;;;;22.32;41.49;100595.81;20887804;28;20293;-89
2023/08/13 11:18:47;;;;;;;6.70;1.23;;;;;;;22.62;42.08;100593.47;20925611;28;20200;-89
2023/08/13 11:28:51;;;;;;;4.25;0.90;;;;;;;23.76;40.40;100591.56;20916653;28;20242;-89
2023/08/13 11:38:55;;;;;;;2.42;0.98;;;;;;;22.81;42.19;100581.66;20904217;28;20192;-89
2023/08/13 11:49:02;;;;;;;3.63;1.05;;;;;;;23.29;42.31;100580.47;20905470;28;20220;-89
2023/08/13 11:59:06;;;;;;;17.85;4.70;;;;;;;23.69;39.65;100556.25;20882782;28;20196;-92
2023/08/13 12:09:10;;;;;;;7.38;1.20;;;;;;;22.56;41.49;100565.63;20880770;28;20220;-88
2023/08/13 12:19:14;;;;;;;4.10;1.10;;;;;;;24.03;39.27;100563.13;20928686;28;20251;-88
2023/08/13 12:29:22;;;;;;;3.22;0.88;;;;;;;22.94;41.81;100566.91;20901452;28;20234;-92
2023/08/13 12:39:25;;;;;;;19.80;10.73;;;;;;;23.49;40.80;100562.44;20940666;28;20196;-91
2023/08/13 12:49:33;;;;;;;5.00;0.95;;;;;;;22.71;41.90;100559.50;20896700;28;20612;-93
2023/08/13 12:59:47;;;;;;;4.55;1.10;;;;;;;23.38;42.12;100550.13;20895070;28;20183;-91
2023/08/13 13:09:56;;;;;;;4.50;1.23;;;;;;;23.71;38.89;100539.44;21453530;22;20477;-88
2023/08/13 13:20:24;;;;;;;4.43;1.40;;;;;;;23.83;39.67;100536.09;20865566;28;20187;-89
